Time;durP1;ratioP1;P1;durP2;ratioP2;P2;SDS_P1;SDS_P2;PMS_P1;PMS_P2;Temp;Humidity;BMP_temperature;BMP_pressure;BME280_temperature;BME280_humidity;BME280_pressure;Samples;Min_cycle;Max_cycle;Signal;HPM_P1;HPM_P2
2022/04/10 00:05:27;;;;;;;3.62;2.28;;;7.20;79.10;;;;;;10983466;32;20034;-74
2022/04/10 00:11:29;;;;;;;3.97;2.47;;;7.10;79.00;;;;;;10983378;32;20018;-74
2022/04/10 00:17:31;;;;;;;3.50;2.60;;;6.90;78.90;;;;;;10983028;32;20023;-74
2022/04/10 00:23:34;;;;;;;3.80;2.60;;;6.80;78.70;;;;;;10979683;32;20398;-75
2022/04/10 00:29:36;;;;;;;3.75;2.58;;;6.70;78.80;;;;;;10981890;32;20088;-74
2022/04/10 00:35:38;;;;;;;3.47;1.98;;;6.80;78.80;;;;;;10982446;32;20027;-74
2022/04/10 00:41:51;;;;;;;3.12;1.98;;;6.80;78.70;;;;;;10982226;32;20034;-74
2022/04/10 00:47:54;;;;;;;3.17;1.65;;;6.70;78.80;;;;;;10981874;32;20057;-74
2022/04/10 00:53:56;;;;;;;1.27;0.90;;;6.80;79.10;;;;;;10981791;32;20054;-71
2022/04/10 00:59:58;;;;;;;3.58;2.33;;;6.90;79.20;;;;;;10981458;32;20019;-70
2022/04/10 01:06:02;;;;;;;2.37;1.85;;;6.90;79.40;;;;;;10981314;32;20023;-71
2022/04/10 01:12:05;;;;;;;3.03;1.87;;;6.80;79.40;;;;;;10989149;27;20073;-70
2022/04/10 01:18:10;;;;;;;3.62;2.17;;;6.80;79.30;;;;;;11019123;32;20015;-71
2022/04/10 01:24:13;;;;;;;2.45;1.80;;;6.70;79.20;;;;;;11005204;32;20014;-71
2022/04/10 01:30:16;;;;;;;3.83;2.30;;;6.60;79.10;;;;;;11018703;32;20053;-70
2022/04/10 01:36:23;;;;;;;2.10;1.23;;;6.70;79.30;;;;;;11018493;32;20048;-70
2022/04/10 01:42:25;;;;;;;3.22;2.03;;;6.70;79.40;;;;;;11018245;32;20018;-70
2022/04/10 01:48:27;;;;;;;1.30;1.02;;;6.70;79.00;;;;;;11018225;32;20030;-71
2022/04/10 01:54:32;;;;;;;1.27;1.08;;;6.70;79.20;;;;;;11004366;32;20394;-70
2022/04/10 02:00:34;;;;;;;1.37;1.27;;;6.70;79.50;;;;;;11017782;32;20018;-71
2022/04/10 02:06:37;;;;;;;3.12;1.60;;;6.70;79.60;;;;;;11017593;32;20065;-70
2022/04/10 02:12:39;;;;;;;1.48;0.95;;;6.90;79.90;;;;;;11017545;32;20049;-70
2022/04/10 02:18:42;;;;;;;3.28;1.40;;;7.20;79.90;;;;;;11017406;32;20042;-71
2022/04/10 02:24:44;;;;;;;1.35;0.85;;;7.30;79.50;;;;;;11014793;32;20049;-70
2022/04/10 02:30:46;;;;;;;2.03;1.00;;;7.20;79.70;;;;;;11021771;32;20053;-71
2022/04/10 02:36:48;;;;;;;2.00;1.30;;;7.20;79.90;;;;;;11021837;32;20045;-71
2022/04/10 02:42:51;;;;;;;1.52;1.00;;;7.00;79.80;;;;;;11024763;32;20034;-70
2022/04/10 02:48:54;;;;;;;3.62;1.02;;;7.00;80.00;;;;;;11022843;32;20033;-70
2022/04/10 02:54:56;;;;;;;2.67;1.37;;;7.00;80.10;;;;;;11021196;32;20118;-70
2022/04/10 03:00:58;;;;;;;1.62;1.20;;;7.20;80.30;;;;;;11024300;32;20026;-70
2022/04/10 03:07:11;;;;;;;4.40;2.20;;;7.10;80.10;;;;;;11023862;32;20030;-70
2022/04/10 03:13:15;;;;;;;2.42;1.20;;;6.90;80.20;;;;;;11023561;32;20023;-70
2022/04/10 03:19:17;;;;;;;1.48;1.30;;;6.90;80.20;;;;;;11023431;32;20045;-71
2022/04/10 03:25:19;;;;;;;3.15;1.77;;;6.80;80.30;;;;;;11009562;32;20022;-71
2022/04/10 03:31:23;;;;;;;1.35;0.85;;;6.90;80.60;;;;;;11020282;32;20358;-70
2022/04/10 03:37:27;;;;;;;1.48;0.85;;;7.00;80.40;;;;;;11009004;32;20065;-70
2022/04/10 03:43:31;;;;;;;1.33;1.00;;;7.10;80.40;;;;;;11022575;32;20043;-70
2022/04/10 03:49:33;;;;;;;1.75;1.00;;;7.00;80.40;;;;;;11021588;32;20026;-70
2022/04/10 03:55:37;;;;;;;4.10;1.85;;;6.80;80.50;;;;;;11009885;32;20046;-70
2022/04/10 04:01:40;;;;;;;2.60;1.90;;;6.60;80.40;;;;;;11021889;32;20057;-70
2022/04/10 04:07:43;;;;;;;6.47;3.83;;;6.40;80.50;;;;;;11003793;32;20048;-71
2022/04/10 04:13:45;;;;;;;7.80;3.92;;;6.30;80.30;;;;;;11020548;32;20022;-71
2022/04/10 04:19:50;;;;;;;6.97;2.62;;;6.10;79.80;;;;;;11021204;32;20022;-70
2022/04/10 04:25:52;;;;;;;4.28;2.95;;;6.00;80.30;;;;;;11021025;32;20314;-70
2022/04/10 04:31:54;;;;;;;6.35;3.45;;;6.10;80.30;;;;;;11007184;32;20026;-71
2022/04/10 04:37:57;;;;;;;4.85;3.47;;;6.00;79.90;;;;;;11020633;32;20311;-71
2022/04/10 04:44:00;;;;;;;5.28;3.40;;;5.90;79.80;;;;;;11006880;32;20172;-71
2022/04/10 04:50:02;;;;;;;5.10;3.45;;;5.80;79.90;;;;;;11019405;32;20029;-71
2022/04/10 04:56:06;;;;;;;5.60;3.53;;;5.90;79.70;;;;;;11020028;32;20341;-71
2022/04/10 05:02:09;;;;;;;3.90;2.20;;;5.80;80.00;;;;;;11002647;32;20329;-71
2022/04/10 05:08:11;;;;;;;8.98;3.17;;;5.90;80.10;;;;;;11015045;32;20022;-71
2022/04/10 05:14:31;;;;;;;4.12;2.33;;;5.80;79.90;;;;;;11019156;32;20018;-71
2022/04/10 05:20:33;;;;;;;3.47;2.17;;;5.80;80.20;;;;;;11016709;32;20014;-70
2022/04/10 05:26:36;;;;;;;7.93;5.20;;;5.90;80.30;;;;;;11018676;32;20026;-70
2022/04/10 05:32:42;;;;;;;4.30;2.92;;;5.90;80.20;;;;;;11014229;32;20362;-70
2022/04/10 05:38:46;;;;;;;6.12;4.37;;;5.90;80.20;;;;;;11018370;32;20019;-71
2022/04/10 05:44:48;;;;;;;3.47;2.47;;;5.90;80.00;;;;;;11018123;32;20052;-71
2022/04/10 05:50:50;;;;;;;6.55;4.03;;;6.10;80.10;;;;;;11017337;32;20349;-71
2022/04/10 05:56:55;;;;;;;8.82;6.20;;;6.10;79.80;;;;;;11018052;32;20030;-71
2022/04/10 06:03:04;;;;;;;7.85;4.45;;;6.10;79.50;;;;;;11017576;32;20049;-71
2022/04/10 06:09:06;;;;;;;7.62;4.90;;;6.20;79.80;;;;;;11017410;32;20095;-71
2022/04/10 06:15:09;;;;;;;6.32;3.97;;;6.30;80.00;;;;;;11017600;32;20420;-71
2022/04/10 06:21:18;;;;;;;4.20;2.67;;;6.40;80.00;;;;;;11016343;32;20465;-71
2022/04/10 06:27:22;;;;;;;5.47;3.83;;;6.50;80.10;;;;;;11003923;32;20026;-70
2022/04/10 06:33:25;;;;;;;7.93;3.70;;;6.60;80.00;;;;;;11017413;32;20385;-70
2022/04/10 06:39:28;;;;;;;9.50;4.62;;;6.70;79.90;;;;;;11017182;32;20026;-70
2022/04/10 06:45:30;;;;;;;9.45;4.37;;;6.80;79.60;;;;;;11013359;32;20033;-70
2022/04/10 06:51:34;;;;;;;10.82;5.40;;;6.90;79.50;;;;;;11011685;32;20053;-70
2022/04/10 06:57:38;;;;;;;6.85;4.18;;;6.90;78.90;;;;;;10998523;32;20041;-70
2022/04/10 07:03:40;;;;;;;8.88;5.72;;;7.10;79.30;;;;;;11017782;32;20045;-70
2022/04/10 07:09:43;;;;;;;7.72;5.28;;;7.20;79.50;;;;;;11016430;32;20052;-70
2022/04/10 07:15:52;;;;;;;5.78;2.90;;;7.30;79.20;;;;;;11006051;32;20031;-70
2022/04/10 07:28:32;;;;;;;5.78;3.40;;;7.70;79.90;;;;;;10983249;32;20023;-71
2022/04/10 07:34:35;;;;;;;6.25;3.20;;;7.90;79.80;;;;;;10980896;32;20307;-70
2022/04/10 07:40:39;;;;;;;6.50;3.95;;;8.00;79.80;;;;;;10985243;32;20310;-71
2022/04/10 07:53:04;;;;;;;6.37;3.58;;;8.20;79.30;;;;;;10980910;32;20330;-71
2022/04/10 07:59:07;;;;;;;6.97;3.85;;;8.30;78.60;;;;;;10983911;32;20054;-70
2022/04/10 08:05:32;;;;;;;6.90;4.55;;;8.40;78.50;;;;;;10983471;32;20049;-71
2022/04/10 08:11:34;;;;;;;7.28;3.12;;;8.50;78.30;;;;;;10969619;32;20547;-70
2022/04/10 08:17:43;;;;;;;8.38;4.15;;;8.70;78.00;;;;;;10981238;32;20022;-70
2022/04/10 08:23:46;;;;;;;4.25;2.50;;;8.80;77.70;;;;;;10982308;32;20030;-70
2022/04/10 08:30:15;;;;;;;4.47;2.70;;;9.00;77.20;;;;;;10982263;32;20048;-70
2022/04/10 08:36:17;;;;;;;4.03;2.50;;;9.20;77.50;;;;;;10986188;32;20385;-70
2022/04/10 08:42:20;;;;;;;3.58;2.75;;;9.30;77.50;;;;;;11013775;32;20056;-71
2022/04/10 08:48:27;;;;;;;3.55;1.95;;;9.50;77.10;;;;;;11008602;32;20065;-70
2022/04/10 08:54:29;;;;;;;3.17;1.95;;;9.60;75.20;;;;;;11000070;32;20034;-71
2022/04/10 09:00:31;;;;;;;5.28;1.70;;;9.80;74.80;;;;;;10998224;32;20440;-71
2022/04/10 09:06:38;;;;;;;4.45;1.92;;;9.90;73.40;;;;;;10983699;32;20061;-71
2022/04/10 09:17:55;;;;;;;1.95;1.20;;;10.10;73.10;;;;;;10616131;32;12682351;-71
2022/04/10 09:24:09;;;;;;;6.10;1.70;;;10.40;71.30;;;;;;11008073;32;20338;-71
2022/04/10 09:30:16;;;;;;;2.47;1.62;;;10.60;70.80;;;;;;10992697;32;20065;-71
2022/04/10 09:36:42;;;;;;;1.10;0.98;;;10.80;71.60;;;;;;10970499;32;20053;-70
2022/04/10 09:42:44;;;;;;;1.58;1.05;;;11.00;68.00;;;;;;11003763;32;20023;-71
2022/04/10 09:49:20;;;;;;;2.22;0.90;;;11.20;67.40;;;;;;11008296;32;20030;-71
2022/04/10 09:55:35;;;;;;;1.85;1.20;;;11.40;65.60;;;;;;11011504;32;20035;-71
2022/04/10 10:01:37;;;;;;;3.58;0.95;;;11.50;65.00;;;;;;10997611;32;20034;-71
2022/04/10 10:07:42;;;;;;;2.42;1.10;;;11.70;61.40;;;;;;11010838;32;20060;-71
2022/04/10 10:13:44;;;;;;;1.62;0.77;;;11.80;61.80;;;;;;11008714;32;20351;-71
2022/04/10 10:19:47;;;;;;;1.75;1.10;;;12.00;60.10;;;;;;11008206;32;20022;-71
2022/04/10 10:26:13;;;;;;;1.27;1.02;;;12.20;59.80;;;;;;10998975;32;20027;-70
2022/04/10 10:32:30;;;;;;;1.77;0.80;;;12.50;57.80;;;;;;10980245;32;20075;-71
2022/04/10 10:38:52;;;;;;;1.30;0.73;;;12.70;56.70;;;;;;10984505;32;20053;-71
2022/04/10 10:44:54;;;;;;;1.00;0.90;;;12.90;55.30;;;;;;10984007;32;20030;-70
2022/04/10 10:51:37;;;;;;;1.52;1.35;;;13.20;54.40;;;;;;10983407;32;20031;-71
2022/04/10 10:57:41;;;;;;;3.58;1.20;;;13.50;50.90;;;;;;10979155;32;20362;-70
2022/04/10 11:04:09;;;;;;;1.50;1.23;;;13.70;52.00;;;;;;10977689;32;20022;-71
2022/04/10 11:10:11;;;;;;;6.35;0.85;;;14.00;50.10;;;;;;10981256;32;20031;-71
2022/04/10 11:16:18;;;;;;;1.25;1.15;;;14.30;50.20;;;;;;10979594;32;20026;-71
2022/04/10 11:22:29;;;;;;;2.00;1.40;;;14.80;48.20;;;;;;10981905;32;20023;-71
2022/04/10 11:35:26;;;;;;;0.98;0.98;;;15.30;45.30;;;;;;10825083;32;20320;-74
2022/04/10 11:41:28;;;;;;;0.90;0.90;;;15.60;45.10;;;;;;10824350;33;20042;-75
2022/04/10 11:47:31;;;;;;;1.77;1.55;;;15.80;44.10;;;;;;10828456;32;20024;-74
2022/04/10 11:53:34;;;;;;;0.90;0.82;;;16.00;42.00;;;;;;10829473;32;20341;-75
2022/04/10 11:59:38;;;;;;;1.15;1.00;;;16.10;38.50;;;;;;10828021;32;20065;-75
2022/04/10 12:06:31;;;;;;;1.30;1.17;;;16.20;40.40;;;;;;10825142;32;20316;-76
2022/04/10 12:12:38;;;;;;;1.73;1.20;;;16.50;41.10;;;;;;10953635;32;20027;-75
2022/04/10 12:18:52;;;;;;;1.12;1.02;;;16.30;40.20;;;;;;10980542;32;20049;-74
2022/04/10 12:24:58;;;;;;;2.05;1.50;;;16.50;40.40;;;;;;10977483;32;20061;-75
2022/04/10 12:31:01;;;;;;;1.58;1.30;;;16.60;38.90;;;;;;10980126;32;20026;-74
2022/04/10 12:37:08;;;;;;;1.20;1.10;;;16.50;37.80;;;;;;10980454;32;20326;-74
2022/04/10 12:43:13;;;;;;;1.50;1.40;;;16.50;36.80;;;;;;10980839;32;20060;-74
2022/04/10 12:49:19;;;;;;;2.92;1.83;;;16.70;37.70;;;;;;10980454;32;20081;-74
2022/04/10 12:55:27;;;;;;;2.87;2.10;;;16.80;37.50;;;;;;10975983;32;20334;-74
2022/04/10 13:01:30;;;;;;;3.47;2.33;;;17.00;42.00;;;;;;10979701;32;20199;-74
2022/04/10 13:07:34;;;;;;;3.00;2.45;;;17.00;40.50;;;;;;10979307;32;20022;-75
2022/04/10 13:13:57;;;;;;;2.45;2.05;;;17.10;40.60;;;;;;10975346;32;20034;-74
2022/04/10 13:20:16;;;;;;;3.45;1.90;;;17.00;39.50;;;;;;10963678;32;20379;-74
2022/04/10 13:26:47;;;;;;;;;;;17.00;38.90;;;;;;10977070;32;20183;-77
2022/04/10 13:33:14;;;;;;;2.87;1.80;;;17.20;40.30;;;;;;10833754;32;20010;-74
2022/04/10 13:39:17;;;;;;;3.17;1.77;;;17.10;39.10;;;;;;10825265;33;20393;-74
2022/04/10 13:45:20;;;;;;;2.40;1.80;;;17.30;39.50;;;;;;10822279;33;20020;-74
2022/04/10 13:51:23;;;;;;;2.40;1.62;;;17.50;38.60;;;;;;10821283;33;20020;-74
2022/04/10 13:57:25;;;;;;;5.55;2.75;;;17.70;39.00;;;;;;10823382;33;20175;-74
2022/04/10 14:03:29;;;;;;;5.85;3.35;;;17.80;40.40;;;;;;10831272;32;20050;-73
2022/04/10 14:09:32;;;;;;;3.08;2.05;;;17.90;39.90;;;;;;10943391;32;20284;-74
2022/04/10 14:15:34;;;;;;;2.50;1.83;;;18.00;40.60;;;;;;10983674;32;20019;-74
2022/04/10 14:21:37;;;;;;;3.00;2.00;;;18.10;39.80;;;;;;10986123;32;20027;-74
2022/04/10 14:27:40;;;;;;;5.87;2.35;;;18.30;39.30;;;;;;10984330;32;20026;-74
2022/04/10 14:33:44;;;;;;;3.22;2.22;;;18.30;38.90;;;;;;10970709;32;20076;-74
2022/04/10 14:39:46;;;;;;;3.60;2.60;;;18.30;37.60;;;;;;10983463;32;20060;-74
2022/04/10 14:45:48;;;;;;;1.55;1.17;;;18.40;40.00;;;;;;10982572;32;20027;-74
2022/04/10 14:51:50;;;;;;;2.45;1.90;;;18.50;38.60;;;;;;10979608;32;20056;-74
2022/04/10 14:57:52;;;;;;;2.62;1.92;;;18.70;37.00;;;;;;10969969;32;20035;-73
2022/04/10 15:03:55;;;;;;;2.03;1.62;;;18.90;36.90;;;;;;10983922;32;20072;-75
2022/04/10 15:09:58;;;;;;;2.20;1.70;;;19.10;35.00;;;;;;10981762;32;20332;-74
2022/04/10 15:16:00;;;;;;;1.77;1.30;;;19.10;35.90;;;;;;10984006;32;20030;-71
2022/04/10 15:22:04;;;;;;;1.90;1.35;;;19.30;35.50;;;;;;10983412;32;20034;-73
2022/04/10 15:28:18;;;;;;;1.37;1.12;;;19.30;35.60;;;;;;10981580;32;20026;-74
2022/04/10 15:34:21;;;;;;;1.62;1.10;;;19.50;35.50;;;;;;10983149;32;20049;-74
2022/04/10 15:40:23;;;;;;;2.83;1.62;;;19.80;34.60;;;;;;10983116;32;20055;-74
2022/04/10 15:46:25;;;;;;;1.42;1.33;;;19.80;33.60;;;;;;10979756;32;20058;-73
2022/04/10 15:52:27;;;;;;;0.95;0.82;;;20.00;33.20;;;;;;10979584;32;20022;-73
2022/04/10 15:58:30;;;;;;;1.48;1.23;;;20.30;33.60;;;;;;10981595;32;20138;-74
2022/04/10 16:04:32;;;;;;;1.02;0.98;;;20.80;32.70;;;;;;10982600;32;20041;-74
2022/04/10 16:10:35;;;;;;;3.40;1.10;;;21.30;32.10;;;;;;10981144;32;20022;-74
2022/04/10 16:16:58;;;;;;;1.52;1.23;;;21.60;31.30;;;;;;10979776;32;20041;-71
2022/04/10 16:23:22;;;;;;;1.48;1.17;;;22.10;30.60;;;;;;10975674;32;20019;-71
2022/04/10 16:36:03;;;;;;;1.35;1.05;;;23.00;30.70;;;;;;10978903;32;20057;-69
2022/04/10 16:42:08;;;;;;;1.27;1.02;;;23.50;29.60;;;;;;10975590;32;20458;-68
2022/04/10 16:48:11;;;;;;;2.20;0.90;;;23.90;29.30;;;;;;10978879;32;20026;-69
2022/04/10 17:00:36;;;;;;;0.93;0.80;;;24.60;29.30;;;;;;10979239;32;20367;-70
2022/04/10 17:06:40;;;;;;;1.80;1.00;;;24.60;28.90;;;;;;10978697;32;20026;-70
2022/04/10 17:12:43;;;;;;;1.30;1.02;;;24.50;28.70;;;;;;10964914;26;20027;-70
2022/04/10 17:18:48;;;;;;;1.48;0.93;;;24.40;29.40;;;;;;10843380;32;20031;-70
2022/04/10 17:24:51;;;;;;;0.70;0.70;;;24.00;30.20;;;;;;10826061;32;20106;-70
2022/04/10 17:30:54;;;;;;;0.93;0.70;;;22.90;30.80;;;;;;10839350;32;20031;-69
2022/04/10 17:36:57;;;;;;;1.10;0.90;;;21.30;32.50;;;;;;10863052;32;20063;-70
2022/04/10 17:42:59;;;;;;;2.33;1.17;;;20.10;34.10;;;;;;10865748;32;20054;-71
2022/04/10 17:49:01;;;;;;;1.60;1.15;;;19.30;35.40;;;;;;10864531;32;20054;-69
2022/04/10 17:55:05;;;;;;;3.80;2.62;;;18.60;36.00;;;;;;10847171;32;20028;-69
2022/04/10 18:01:07;;;;;;;4.18;2.95;;;17.90;37.10;;;;;;10861614;32;20024;-70
2022/04/10 18:07:09;;;;;;;3.10;1.85;;;17.40;38.40;;;;;;10862246;32;20054;-70
2022/04/10 18:13:11;;;;;;;4.12;2.53;;;17.00;39.40;;;;;;10861089;32;20036;-70
2022/04/10 18:19:15;;;;;;;7.00;3.17;;;16.80;40.20;;;;;;10860908;32;20028;-70
2022/04/10 18:25:17;;;;;;;6.45;3.87;;;16.50;42.30;;;;;;10863388;32;20032;-69
2022/04/10 18:31:20;;;;;;;4.68;3.50;;;16.30;44.00;;;;;;10864399;32;20039;-70
2022/04/10 18:37:22;;;;;;;6.47;3.95;;;16.10;44.10;;;;;;10850220;32;20107;-69
2022/04/10 18:43:25;;;;;;;7.35;4.18;;;16.00;44.70;;;;;;10864390;32;20036;-70
2022/04/10 18:49:38;;;;;;;9.70;6.40;;;15.70;46.90;;;;;;10857774;32;20081;-69
2022/04/10 18:55:40;;;;;;;5.85;4.28;;;15.60;49.50;;;;;;10862020;32;20040;-70
2022/04/10 19:01:44;;;;;;;6.40;4.37;;;15.30;49.80;;;;;;10860133;32;20027;-69
2022/04/10 19:07:46;;;;;;;8.25;5.57;;;15.20;50.70;;;;;;10862195;32;20063;-70
2022/04/10 19:13:49;;;;;;;5.97;3.70;;;15.00;51.10;;;;;;10860347;32;20395;-70
2022/04/10 19:19:51;;;;;;;6.03;3.70;;;14.90;52.10;;;;;;10849532;32;20328;-70
2022/04/10 19:25:53;;;;;;;6.68;5.03;;;14.80;52.30;;;;;;10861123;32;20019;-70
2022/04/10 19:31:57;;;;;;;5.43;3.78;;;14.70;52.80;;;;;;10858811;32;20058;-70
2022/04/10 19:37:59;;;;;;;8.52;4.37;;;14.70;52.70;;;;;;10848833;32;20058;-70
2022/04/10 19:44:01;;;;;;;9.07;4.80;;;14.60;53.20;;;;;;10838492;32;20090;-70
2022/04/10 19:50:31;;;;;;;8.60;5.07;;;14.50;53.60;;;;;;10825258;33;20331;-70
2022/04/10 19:56:35;;;;;;;7.12;4.45;;;14.40;54.20;;;;;;10824515;32;20024;-70
2022/04/10 20:02:37;;;;;;;5.80;3.47;;;14.30;54.20;;;;;;10825500;33;20055;-70
2022/04/10 20:08:39;;;;;;;5.50;2.20;;;14.30;54.60;;;;;;10808703;33;20055;-70
2022/04/10 20:14:44;;;;;;;9.30;3.33;;;14.20;54.40;;;;;;10824363;33;20351;-69
2022/04/10 20:20:46;;;;;;;3.58;2.50;;;14.00;54.60;;;;;;10823728;33;20040;-70
2022/04/10 20:26:48;;;;;;;2.65;2.22;;;13.90;55.10;;;;;;10811375;33;20054;-69
2022/04/10 20:32:52;;;;;;;3.22;2.08;;;13.80;55.40;;;;;;10824747;33;20036;-70
2022/04/10 20:38:54;;;;;;;3.92;2.58;;;13.70;55.80;;;;;;10824696;33;20028;-70
2022/04/10 20:44:56;;;;;;;2.80;1.95;;;13.70;56.30;;;;;;10822032;33;20055;-70
2022/04/10 20:50:59;;;;;;;2.72;1.73;;;13.80;56.60;;;;;;10820613;33;20019;-70
2022/04/10 20:57:01;;;;;;;2.97;2.00;;;13.80;57.00;;;;;;10808405;33;20062;-70
2022/04/10 21:03:04;;;;;;;3.75;2.45;;;13.80;57.40;;;;;;10823929;33;20023;-70
2022/04/10 21:09:06;;;;;;;4.65;2.60;;;13.70;57.90;;;;;;10808931;33;20438;-70
2022/04/10 21:15:08;;;;;;;4.53;2.55;;;13.60;59.70;;;;;;10822858;33;20047;-70
2022/04/10 21:21:11;;;;;;;2.87;2.15;;;13.30;62.00;;;;;;10821398;33;20032;-70
2022/04/10 21:27:13;;;;;;;4.40;2.67;;;13.20;63.50;;;;;;10824051;33;20019;-70
2022/04/10 21:33:15;;;;;;;4.65;2.60;;;13.10;63.60;;;;;;10819675;33;20036;-70
2022/04/10 21:39:17;;;;;;;6.03;3.35;;;12.90;63.60;;;;;;10821687;33;20081;-70
2022/04/10 21:45:20;;;;;;;5.47;2.87;;;13.00;63.50;;;;;;10821389;33;20036;-70
2022/04/10 21:51:22;;;;;;;3.78;2.62;;;13.00;64.10;;;;;;10820653;33;20335;-70
2022/04/10 21:57:25;;;;;;;6.65;3.72;;;12.90;64.50;;;;;;10823349;33;20036;-70
2022/04/10 22:03:28;;;;;;;5.28;3.60;;;12.80;65.00;;;;;;10823338;33;20386;-71
2022/04/10 22:09:30;;;;;;;5.75;2.75;;;12.70;65.20;;;;;;10823258;33;20036;-70
2022/04/10 22:15:32;;;;;;;6.40;3.72;;;12.50;65.50;;;;;;10822835;33;20031;-70
2022/04/10 22:21:34;;;;;;;4.43;3.40;;;12.50;65.90;;;;;;10824458;32;20031;-70
2022/04/10 22:27:36;;;;;;;7.30;4.57;;;12.30;66.20;;;;;;10827082;32;20050;-70
2022/04/10 22:34:10;;;;;;;4.62;3.47;;;12.20;66.10;;;;;;10825463;33;20036;-70
2022/04/10 22:40:13;;;;;;;6.00;4.55;;;12.00;66.70;;;;;;10825185;33;20042;-72
2022/04/10 22:46:15;;;;;;;5.80;3.40;;;12.00;67.20;;;;;;10814606;33;20032;-72
2022/04/10 22:52:17;;;;;;;4.00;2.65;;;11.90;67.60;;;;;;10825792;33;20024;-72
2022/04/10 22:58:20;;;;;;;2.90;2.20;;;12.00;67.80;;;;;;10827025;33;20058;-72
2022/04/10 23:04:22;;;;;;;3.70;2.33;;;12.00;67.40;;;;;;10825563;33;20042;-72
2022/04/10 23:10:23;;;;;;;2.70;1.87;;;12.10;67.50;;;;;;10825275;33;20328;-72
2022/04/10 23:16:26;;;;;;;4.78;2.85;;;12.10;67.40;;;;;;10828963;33;20051;-72
2022/04/10 23:22:27;;;;;;;5.70;3.95;;;12.10;67.10;;;;;;10828990;33;20466;-72
2022/04/10 23:28:29;;;;;;;3.92;2.53;;;12.00;67.00;;;;;;10828693;33;20070;-72
2022/04/10 23:34:32;;;;;;;7.03;3.78;;;12.00;66.90;;;;;;10828331;32;20027;-72
2022/04/10 23:40:34;;;;;;;3.25;2.47;;;11.80;67.10;;;;;;10815294;33;20414;-72
2022/04/10 23:46:36;;;;;;;7.20;5.37;;;11.80;67.10;;;;;;10828140;33;20396;-72
2022/04/10 23:52:38;;;;;;;7.25;3.65;;;11.80;67.20;;;;;;10828160;33;20090;-72
2022/04/10 23:58:40;;;;;;;9.60;5.53;;;11.70;67.40;;;;;;10827840;33;20407;-72
